Time;durP1;ratioP1;P1;durP2;ratioP2;P2;SDS_P1;SDS_P2;PMS_P1;PMS_P2;Temp;Humidity;BMP_temperature;BMP_pressure;BME280_temperature;BME280_humidity;BME280_pressure;Samples;Min_cycle;Max_cycle;Signal;HPM_P1;HPM_P2
2023/03/05 00:01:11;;;;;;;;;;;;;;;5.54;100.00;99784.59;4990558;28;19931;-40
2023/03/05 00:03:37;;;;;;;;;;;;;;;5.49;100.00;99787.97;4993553;28;19995;-40
2023/03/05 00:06:02;;;;;;;;;;;;;;;5.68;100.00;99789.72;4992911;28;20023;-40
2023/03/05 00:08:28;;;;;;;;;;;;;;;5.72;100.00;99781.16;4992897;28;19972;-40
2023/03/05 00:10:57;;;;;;;;;;;;;;;5.59;100.00;99775.22;4992461;28;19929;-39
2023/03/05 00:13:22;;;;;;;;;;;;;;;5.63;100.00;99776.06;4992459;28;19948;-40
2023/03/05 00:15:47;;;;;;;;;;;;;;;5.84;100.00;99767.56;4994157;28;20425;-40
2023/03/05 00:18:12;;;;;;;;;;;;;;;6.65;100.00;99757.16;4993948;28;19932;-40
2023/03/05 00:20:38;;;;;;;;;;;;;;;7.01;100.00;99736.53;4988834;28;19932;-40
2023/03/05 00:23:03;;;;;;;;;;;;;;;7.83;100.00;99706.00;4994665;28;19925;-40
2023/03/05 00:25:28;;;;;;;;;;;;;;;7.50;100.00;99672.09;4993064;28;20772;-40
2023/03/05 00:27:53;;;;;;;;;;;;;;;7.88;100.00;99648.66;4992161;28;19921;-40
2023/03/05 00:30:19;;;;;;;;;;;;;;;7.01;100.00;99606.75;4988994;28;19928;-40
2023/03/05 00:32:44;;;;;;;;;;;;;;;6.90;100.00;99601.72;4992178;28;19925;-40
2023/03/05 00:35:09;;;;;;;;;;;;;;;6.23;100.00;99592.75;4992872;28;19928;-40
2023/03/05 00:37:34;;;;;;;;;;;;;;;6.27;100.00;99604.69;4993391;28;19921;-40
2023/03/05 00:40:00;;;;;;;;;;;;;;;5.69;100.00;99602.28;4996497;28;19918;-40
2023/03/05 00:42:25;;;;;;;;;;;;;;;6.01;100.00;99625.22;4990928;28;19968;-40
2023/03/05 00:44:50;;;;;;;;;;;;;;;5.82;100.00;99628.69;4992872;28;20008;-40
2023/03/05 00:47:17;;;;;;;;;;;;;;;5.39;100.00;99628.75;4993305;28;19974;-40
2023/03/05 00:49:42;;;;;;;;;;;;;;;6.06;100.00;99648.22;4994316;28;20622;-40
2023/03/05 00:52:07;;;;;;;;;;;;;;;5.94;100.00;99644.00;4992634;28;19925;-40
2023/03/05 00:54:32;;;;;;;;;;;;;;;5.17;100.00;99633.00;4992994;28;19926;-40
2023/03/05 00:56:58;;;;;;;;;;;;;;;4.83;100.00;99648.28;4993524;28;19932;-40
2023/03/05 00:59:23;;;;;;;;;;;;;;;5.04;100.00;99673.03;4991956;28;19921;-40
2023/03/05 01:01:48;;;;;;;;;;;;;;;5.26;100.00;99689.19;4991762;28;20607;-40
2023/03/05 01:04:13;;;;;;;;;;;;;;;5.25;100.00;99692.59;4991303;28;20582;-40
2023/03/05 01:06:43;;;;;;;;;;;;;;;5.61;100.00;99701.09;4992041;28;21631;-40
2023/03/05 01:09:08;;;;;;;;;;;;;;;5.58;100.00;99691.72;4994638;28;19921;-40
2023/03/05 01:11:34;;;;;;;;;;;;;;;5.76;100.00;99684.91;4991060;28;20689;-40
2023/03/05 01:13:59;;;;;;;;;;;;;;;5.79;100.00;99680.66;4992157;28;20780;-40
2023/03/05 01:16:24;;;;;;;;;;;;;;;5.47;100.00;99677.28;4991472;28;21597;-40
2023/03/05 01:18:49;;;;;;;;;;;;;;;5.07;100.00;99675.56;4992377;28;20006;-40
2023/03/05 01:21:14;;;;;;;;;;;;;;;4.95;100.00;99689.16;4992348;28;19913;-40
2023/03/05 01:23:40;;;;;;;;;;;;;;;5.19;100.00;99702.81;4993057;28;19921;-40
2023/03/05 01:26:05;;;;;;;;;;;;;;;5.86;100.00;99710.47;4992174;28;19923;-40
2023/03/05 01:28:31;;;;;;;;;;;;;;;5.13;100.00;99692.56;4991678;28;19921;-40
2023/03/05 01:30:56;;;;;;;;;;;;;;;5.21;100.00;99698.56;4991918;28;20020;-40
2023/03/05 01:33:21;;;;;;;;;;;;;;;5.23;100.00;99700.25;4991905;28;19931;-40
2023/03/05 01:35:47;;;;;;;;;;;;;;;5.48;100.00;99707.09;4992665;28;20377;-40
2023/03/05 01:38:13;;;;;;;;;;;;;;;5.36;100.00;99706.22;5007905;28;20310;-40
2023/03/05 01:40:38;;;;;;;;;;;;;;;5.40;100.00;99691.75;4991685;28;19921;-40
2023/03/05 01:43:09;;;;;;;;;;;;;;;6.12;100.00;99699.34;4991333;28;19917;-40
2023/03/05 01:45:34;;;;;;;;;;;;;;;5.60;100.00;99671.31;4992467;28;19914;-40
2023/03/05 01:47:59;;;;;;;;;;;;;;;5.54;100.00;99664.50;4990687;28;19999;-40
2023/03/05 01:50:25;;;;;;;;;;;;;;;4.35;100.00;99654.97;4988373;28;20036;-40
2023/03/05 01:52:56;;;;;;;;;;;;;;;4.37;100.00;99677.06;5004426;28;19934;-40
2023/03/05 01:55:23;;;;;;;;;;;;;;;4.48;100.00;99712.84;5005622;28;19917;-40
2023/03/05 01:57:52;;;;;;;;;;;;;;;4.94;100.00;99735.94;4992335;28;19921;-40
2023/03/05 02:00:19;;;;;;;;;;;;;;;4.58;100.00;99735.00;4992085;28;19918;-40
2023/03/05 02:02:46;;;;;;;;;;;;;;;4.53;100.00;99746.84;4991625;28;19928;-40
2023/03/05 02:05:18;;;;;;;;;;;;;;;4.32;100.00;99759.50;4990458;28;20016;-40
2023/03/05 02:07:44;;;;;;;;;;;;;;;4.32;100.00;99775.66;4991385;28;20331;-40
2023/03/05 02:10:19;;;;;;;;;;;;;;;4.30;100.00;99799.44;4989337;28;19936;-40
2023/03/05 02:12:46;;;;;;;;;;;;;;;4.35;100.00;99825.81;4989905;28;21667;-40
2023/03/05 02:15:11;;;;;;;;;;;;;;;4.56;100.00;99838.72;4989854;28;19925;-40
2023/03/05 02:17:36;;;;;;;;;;;;;;;4.46;100.00;99857.34;4991867;28;19964;-40
2023/03/05 02:20:04;;;;;;;;;;;;;;;4.38;100.00;99859.00;4992090;28;19925;-40
2023/03/05 02:22:29;;;;;;;;;;;;;;;4.44;100.00;99874.31;4990408;28;20023;-40
2023/03/05 02:24:54;;;;;;;;;;;;;;;4.53;100.00;99889.69;4990829;28;20394;-40
2023/03/05 02:27:22;;;;;;;;;;;;;;;4.74;100.00;99895.78;4990239;28;19921;-40
2023/03/05 02:29:47;;;;;;;;;;;;;;;4.68;100.00;99894.06;5005082;28;20059;-40
2023/03/05 02:32:12;;;;;;;;;;;;;;;4.55;100.00;99888.00;4987860;28;19925;-40
2023/03/05 02:34:38;;;;;;;;;;;;;;;4.76;100.00;99886.44;4987496;28;20024;-40
2023/03/05 02:37:03;;;;;;;;;;;;;;;4.33;100.00;99873.41;4988091;28;20016;-40
2023/03/05 02:39:29;;;;;;;;;;;;;;;4.52;100.00;99888.00;4989632;28;20619;-40
2023/03/05 02:41:54;;;;;;;;;;;;;;;4.27;100.00;99878.47;4986509;28;19925;-40
2023/03/05 02:44:19;;;;;;;;;;;;;;;4.57;100.00;99904.19;4988082;28;20039;-40
2023/03/05 02:46:45;;;;;;;;;;;;;;;4.28;100.00;99895.47;4989788;28;19975;-40
2023/03/05 02:49:10;;;;;;;;;;;;;;;4.18;100.00;99897.09;4988221;28;20019;-40
2023/03/05 02:51:35;;;;;;;;;;;;;;;4.69;100.00;99935.72;4985026;28;19925;-41
2023/03/05 02:54:00;;;;;;;;;;;;;;;4.42;100.00;99929.56;4988131;28;19924;-40
2023/03/05 02:56:25;;;;;;;;;;;;;;;4.59;100.00;99950.13;4988121;28;19926;-41
2023/03/05 02:58:51;;;;;;;;;;;;;;;4.87;100.00;99963.91;4988984;28;19932;-40
2023/03/05 03:01:16;;;;;;;;;;;;;;;4.06;100.00;99928.44;4987645;28;19921;-41
2023/03/05 03:03:41;;;;;;;;;;;;;;;4.50;100.00;99953.44;4988752;28;20024;-40
2023/03/05 03:06:06;;;;;;;;;;;;;;;4.46;100.00;99964.47;4987413;28;19960;-40
2023/03/05 03:08:31;;;;;;;;;;;;;;;4.60;100.00;99972.22;4989948;28;19925;-41
2023/03/05 03:11:02;;;;;;;;;;;;;;;4.56;100.00;99979.03;4986978;28;19932;-40
2023/03/05 03:13:27;;;;;;;;;;;;;;;4.46;99.37;99984.88;4986284;28;20330;-40
2023/03/05 03:16:06;;;;;;;;;;;;;;;4.28;96.98;99979.59;4988229;28;20178;-41
2023/03/05 03:18:31;;;;;;;;;;;;;;;4.48;91.51;99997.66;4987071;28;19932;-40
2023/03/05 03:20:57;;;;;;;;;;;;;;;4.05;90.20;99997.22;4988567;28;19921;-40
2023/03/05 03:23:22;;;;;;;;;;;;;;;4.30;86.33;100018.72;4987297;28;19931;-40
2023/03/05 03:25:47;;;;;;;;;;;;;;;4.48;82.61;100033.34;4988539;28;20386;-40
2023/03/05 03:28:12;;;;;;;;;;;;;;;4.33;83.00;100036.59;4988175;28;19921;-40
2023/03/05 03:30:37;;;;;;;;;;;;;;;4.61;84.47;100046.22;4985937;28;19929;-40
2023/03/05 03:33:03;;;;;;;;;;;;;;;4.90;82.19;100053.25;4987144;28;19925;-41
2023/03/05 03:35:28;;;;;;;;;;;;;;;4.18;84.26;100020.31;4987811;28;19925;-40
2023/03/05 03:37:53;;;;;;;;;;;;;;;4.22;80.15;100040.72;4986046;28;20176;-40
2023/03/05 03:40:18;;;;;;;;;;;;;;;4.19;81.12;100041.56;4986567;28;19921;-40
2023/03/05 03:42:44;;;;;;;;;;;;;;;4.20;80.26;100048.38;4986239;28;19925;-40
2023/03/05 03:45:09;;;;;;;;;;;;;;;4.36;77.26;100064.69;4986405;28;21165;-40
2023/03/05 03:47:34;;;;;;;;;;;;;;;4.29;77.21;100070.53;4987784;28;20586;-40
2023/03/05 03:50:00;;;;;;;;;;;;;;;4.29;75.58;100078.19;4987125;28;20008;-40
2023/03/05 03:52:25;;;;;;;;;;;;;;;4.23;76.94;100081.56;4987494;28;19928;-40
2023/03/05 03:54:51;;;;;;;;;;;;;;;4.50;74.00;100098.84;4986695;28;20247;-40
2023/03/05 03:57:17;;;;;;;;;;;;;;;4.60;75.32;100100.63;4987906;28;19931;-40
2023/03/05 03:59:44;;;;;;;;;;;;;;;4.51;76.01;100090.34;4989253;28;19921;-40
2023/03/05 04:02:09;;;;;;;;;;;;;;;4.30;76.32;100079.94;4987101;28;20572;-40
2023/03/05 04:04:34;;;;;;;;;;;;;;;4.47;73.90;100098.81;4986243;28;19929;-40
2023/03/05 04:06:59;;;;;;;;;;;;;;;4.17;73.67;100087.44;4988017;28;19983;-40
2023/03/05 04:09:25;;;;;;;;;;;;;;;4.25;72.67;100096.88;4989025;28;19921;-40
2023/03/05 04:11:50;;;;;;;;;;;;;;;4.08;72.68;100096.66;4987109;28;19979;-40
2023/03/05 04:14:15;;;;;;;;;;;;;;;4.15;71.72;100106.97;4988228;28;19918;-40
2023/03/05 04:16:40;;;;;;;;;;;;;;;4.22;71.58;100114.66;4987676;28;19921;-40
2023/03/05 04:19:05;;;;;;;;;;;;;;;4.09;72.78;100106.03;4989587;28;20112;-40
2023/03/05 04:21:31;;;;;;;;;;;;;;;4.27;69.80;100123.25;4992611;28;20293;-40
2023/03/05 04:23:56;;;;;;;;;;;;;;;4.50;70.88;100129.47;4997286;28;19968;-40
2023/03/05 04:26:21;;;;;;;;;;;;;;;4.15;73.33;100112.06;4997691;28;19921;-40
2023/03/05 04:28:47;;;;;;;;;;;;;;;4.10;73.45;100103.50;4995956;28;19918;-41
2023/03/05 04:31:12;;;;;;;;;;;;;;;4.57;72.08;100121.03;4991302;28;19932;-40
2023/03/05 04:33:37;;;;;;;;;;;;;;;4.96;71.87;100129.06;4989516;28;19973;-40
2023/03/05 04:36:02;;;;;;;;;;;;;;;4.61;75.31;100107.47;4990748;28;20314;-40
2023/03/05 04:38:28;;;;;;;;;;;;;;;4.68;74.29;100098.19;4990956;28;20398;-40
2023/03/05 04:40:53;;;;;;;;;;;;;;;4.59;74.77;100088.72;4990942;28;20414;-40
2023/03/05 04:43:18;;;;;;;;;;;;;;;4.53;75.43;100075.06;4988300;28;20438;-41
2023/03/05 04:45:43;;;;;;;;;;;;;;;4.32;75.07;100078.25;4991684;28;20409;-41
2023/03/05 04:48:09;;;;;;;;;;;;;;;4.10;75.57;100065.25;4990520;28;20679;-40
2023/03/05 04:50:34;;;;;;;;;;;;;;;4.24;72.95;100080.69;4988102;28;19984;-40
2023/03/05 04:52:59;;;;;;;;;;;;;;;4.17;71.86;100090.00;4990313;28;20335;-41
2023/03/05 04:55:25;;;;;;;;;;;;;;;4.18;71.77;100096.78;4990504;28;20472;-41
2023/03/05 04:57:50;;;;;;;;;;;;;;;4.03;70.82;100096.59;4991086;28;20654;-40
2023/03/05 05:00:15;;;;;;;;;;;;;;;4.11;70.41;100114.56;4990736;28;20318;-40
2023/03/05 05:02:42;;;;;;;;;;;;;;;4.26;69.16;100124.06;4989718;28;20409;-40
2023/03/05 05:05:08;;;;;;;;;;;;;;;4.11;70.80;100123.06;4988658;28;20078;-40
2023/03/05 05:07:33;;;;;;;;;;;;;;;3.81;72.18;100105.69;4987521;28;19933;-40
2023/03/05 05:09:58;;;;;;;;;;;;;;;4.18;68.77;100134.19;4988579;28;20397;-40
2023/03/05 05:12:23;;;;;;;;;;;;;;;3.76;69.78;100117.50;4989196;28;19987;-40
2023/03/05 05:14:49;;;;;;;;;;;;;;;3.98;68.74;100139.03;4988331;28;19926;-40
2023/03/05 05:17:14;;;;;;;;;;;;;;;3.90;68.96;100141.50;4991522;28;19983;-40
2023/03/05 05:19:39;;;;;;;;;;;;;;;3.94;67.91;100152.56;4990777;28;20093;-40
2023/03/05 05:22:04;;;;;;;;;;;;;;;3.87;68.89;100154.16;4987808;28;19963;-40
2023/03/05 05:24:30;;;;;;;;;;;;;;;3.90;68.25;100158.44;4987709;28;20085;-41
2023/03/05 05:26:55;;;;;;;;;;;;;;;3.95;68.12;100167.03;4991000;28;19925;-40
2023/03/05 05:29:20;;;;;;;;;;;;;;;4.18;66.83;100180.94;4989435;28;19918;-40
2023/03/05 05:31:46;;;;;;;;;;;;;;;4.04;67.79;100174.81;4988271;28;20302;-40
2023/03/05 05:34:11;;;;;;;;;;;;;;;4.10;67.63;100190.16;4987889;28;20370;-40
2023/03/05 05:36:36;;;;;;;;;;;;;;;4.14;67.42;100178.31;4988451;28;20355;-40
2023/03/05 05:39:01;;;;;;;;;;;;;;;3.88;69.00;100163.53;4990718;28;19929;-40
2023/03/05 05:41:27;;;;;;;;;;;;;;;4.04;67.59;100185.00;5005697;28;20200;-40
2023/03/05 05:43:52;;;;;;;;;;;;;;;3.70;68.95;100169.22;4990265;28;20677;-40
2023/03/05 05:46:18;;;;;;;;;;;;;;;4.06;67.89;100182.44;4989088;28;19983;-40
2023/03/05 05:48:43;;;;;;;;;;;;;;;4.27;66.83;100192.94;4988253;28;19921;-40
2023/03/05 05:51:11;;;;;;;;;;;;;;;4.01;69.03;100176.44;4989768;28;19959;-40
2023/03/05 05:53:37;;;;;;;;;;;;;;;3.70;69.21;100153.94;4988584;28;21397;-40
2023/03/05 05:56:03;;;;;;;;;;;;;;;4.28;67.71;100192.09;4989483;28;20012;-40
2023/03/05 05:58:28;;;;;;;;;;;;;;;4.15;70.07;100173.25;4989655;28;20005;-40
2023/03/05 06:00:53;;;;;;;;;;;;;;;4.35;69.81;100170.09;4988226;28;20477;-40
2023/03/05 06:03:19;;;;;;;;;;;;;;;4.17;72.21;100145.22;4991337;28;20438;-40
2023/03/05 06:05:46;;;;;;;;;;;;;;;4.38;71.93;100140.38;4989290;28;19921;-40
2023/03/05 06:08:11;;;;;;;;;;;;;;;4.42;73.12;100132.75;4988377;28;19921;-40
2023/03/05 06:10:36;;;;;;;;;;;;;;;4.96;72.31;100134.16;4987999;28;19925;-40
2023/03/05 06:13:02;;;;;;;;;;;;;;;4.85;76.05;100100.88;4990084;28;19979;-40
2023/03/05 06:15:27;;;;;;;;;;;;;;;4.60;80.41;100059.81;4988316;28;21615;-40
2023/03/05 06:17:53;;;;;;;;;;;;;;;5.48;78.72;100072.41;4990097;28;20314;-40
2023/03/05 06:20:18;;;;;;;;;;;;;;;4.13;88.86;99981.19;4987674;28;19921;-40
2023/03/05 06:22:44;;;;;;;;;;;;;;;4.18;86.73;99993.97;4989177;28;19921;-40
2023/03/05 06:25:09;;;;;;;;;;;;;;;3.89;83.62;99991.13;4988122;28;19925;-40
2023/03/05 06:27:35;;;;;;;;;;;;;;;4.40;76.63;100028.16;4986521;28;20484;-40
2023/03/05 06:30:00;;;;;;;;;;;;;;;4.09;78.42;100035.50;4987624;28;19925;-40
2023/03/05 06:32:25;;;;;;;;;;;;;;;4.58;78.58;100053.00;4988786;28;20095;-40
2023/03/05 06:34:50;;;;;;;;;;;;;;;4.25;81.54;100030.59;4988628;28;20271;-40
2023/03/05 06:37:16;;;;;;;;;;;;;;;4.39;77.92;100034.97;4988591;28;19921;-41
2023/03/05 06:39:41;;;;;;;;;;;;;;;4.27;77.54;100034.84;4987095;28;19926;-40
2023/03/05 06:42:06;;;;;;;;;;;;;;;4.44;76.78;100042.66;4985268;28;19929;-40
2023/03/05 06:44:31;;;;;;;;;;;;;;;4.22;79.24;100035.63;4988559;28;19979;-40
2023/03/05 06:46:57;;;;;;;;;;;;;;;3.95;79.21;100026.88;4987077;28;19936;-40
2023/03/05 06:49:22;;;;;;;;;;;;;;;4.26;75.58;100045.03;4987961;28;20770;-40
2023/03/05 06:51:47;;;;;;;;;;;;;;;4.36;76.73;100049.41;4987601;28;20500;-41
2023/03/05 06:54:13;;;;;;;;;;;;;;;4.12;75.72;100049.97;4987266;28;20606;-40
2023/03/05 06:56:39;;;;;;;;;;;;;;;4.37;75.75;100066.41;4988033;28;20167;-40
2023/03/05 06:59:04;;;;;;;;;;;;;;;5.02;73.11;100093.38;4986787;28;19921;-40
2023/03/05 07:01:29;;;;;;;;;;;;;;;3.98;82.25;100026.91;4988033;28;19933;-40
2023/03/05 07:03:57;;;;;;;;;;;;;;;4.40;77.45;100038.38;4986522;28;19925;-40
2023/03/05 07:06:23;;;;;;;;;;;;;;;4.34;76.23;100044.28;4987517;28;20202;-40
2023/03/05 07:08:48;;;;;;;;;;;;;;;4.61;75.05;100053.88;4987706;28;19932;-40
2023/03/05 07:11:14;;;;;;;;;;;;;;;4.77;76.60;100052.31;4987045;28;19933;-40
2023/03/05 07:13:40;;;;;;;;;;;;;;;4.51;77.43;100033.38;4987103;28;19933;-40
2023/03/05 07:16:06;;;;;;;;;;;;;;;4.78;75.57;100042.97;4986083;28;19925;-40
2023/03/05 07:18:31;;;;;;;;;;;;;;;4.56;78.44;100022.38;4988049;28;19923;-40
2023/03/05 07:21:00;;;;;;;;;;;;;;;4.92;78.31;100028.59;4987790;28;21432;-40
2023/03/05 07:23:25;;;;;;;;;;;;;;;5.24;78.35;100030.53;4991003;28;19921;-40
2023/03/05 07:25:50;;;;;;;;;;;;;;;5.19;82.13;100009.22;4989155;28;19928;-41
2023/03/05 07:28:16;;;;;;;;;;;;;;;4.55;84.40;99968.78;4987024;28;19972;-40
2023/03/05 07:30:41;;;;;;;;;;;;;;;4.98;80.82;99987.81;4986227;28;19926;-40
2023/03/05 07:33:06;;;;;;;;;;;;;;;5.02;80.14;99981.91;4987970;28;19968;-40
2023/03/05 07:35:31;;;;;;;;;;;;;;;4.81;82.41;99963.88;4988016;28;20367;-40
2023/03/05 07:37:56;;;;;;;;;;;;;;;4.86;80.07;99975.00;4987599;28;19971;-41
2023/03/05 07:40:22;;;;;;;;;;;;;;;4.93;79.24;99981.00;4987200;28;20290;-40
2023/03/05 07:42:47;;;;;;;;;;;;;;;4.85;77.44;99975.81;4984509;28;19948;-40
2023/03/05 07:45:12;;;;;;;;;;;;;;;4.80;78.39;99974.94;4986168;28;20246;-40
2023/03/05 07:47:37;;;;;;;;;;;;;;;4.49;78.57;99971.28;4989021;28;19929;-40
2023/03/05 07:50:03;;;;;;;;;;;;;;;4.69;75.62;99984.19;4987573;28;20012;-40
2023/03/05 07:52:28;;;;;;;;;;;;;;;4.13;77.79;99965.88;4987776;28;20016;-40
2023/03/05 07:54:53;;;;;;;;;;;;;;;4.14;72.02;99982.88;4989401;28;19932;-40
2023/03/05 07:57:18;;;;;;;;;;;;;;;4.39;67.99;100013.72;4992550;28;19932;-40
2023/03/05 07:59:44;;;;;;;;;;;;;;;4.25;70.60;100012.75;4991423;28;21236;-40
2023/03/05 08:02:10;;;;;;;;;;;;;;;4.64;67.61;100044.56;4991553;28;19918;-41
2023/03/05 08:04:35;;;;;;;;;;;;;;;4.13;70.46;100029.63;4991493;28;20485;-40
2023/03/05 08:07:00;;;;;;;;;;;;;;;4.40;67.57;100046.91;4991774;28;19979;-40
2023/03/05 08:09:26;;;;;;;;;;;;;;;4.46;68.11;100056.28;4991694;28;19925;-40
2023/03/05 08:11:51;;;;;;;;;;;;;;;4.39;68.57;100054.53;4990895;28;20397;-41
2023/03/05 08:14:17;;;;;;;;;;;;;;;4.55;66.90;100073.38;4992069;28;19922;-40
2023/03/05 08:16:42;;;;;;;;;;;;;;;4.66;67.67;100073.50;4990101;28;19975;-41
2023/03/05 08:19:08;;;;;;;;;;;;;;;4.35;69.63;100058.72;4990337;28;19955;-40
2023/03/05 08:21:34;;;;;;;;;;;;;;;4.10;70.78;100047.41;4989740;28;19937;-40
2023/03/05 08:24:04;;;;;;;;;;;;;;;4.32;69.60;100060.41;4991462;28;19924;-41
2023/03/05 08:26:30;;;;;;;;;;;;;;;4.88;68.58;100084.72;4987221;28;19925;-40
2023/03/05 08:28:55;;;;;;;;;;;;;;;4.65;71.40;100051.34;4989862;28;19917;-40
2023/03/05 08:31:21;;;;;;;;;;;;;;;4.13;71.85;100023.66;4988899;28;20003;-40
2023/03/05 08:33:47;;;;;;;;;;;;;;;3.95;69.55;100031.97;4990935;28;20004;-40
2023/03/05 08:36:12;;;;;;;;;;;;;;;4.48;66.28;100075.00;4991009;28;20003;-40
2023/03/05 08:38:38;;;;;;;;;;;;;;;3.97;68.25;100055.78;4991162;28;19925;-40
2023/03/05 08:41:03;;;;;;;;;;;;;;;4.05;66.97;100077.09;4989762;28;19935;-40
2023/03/05 08:43:29;;;;;;;;;;;;;;;4.14;66.46;100096.75;4989856;28;21568;-40
2023/03/05 08:45:55;;;;;;;;;;;;;;;4.07;67.34;100100.06;4992045;28;19997;-40
2023/03/05 08:48:20;;;;;;;;;;;;;;;4.45;66.63;100131.09;4990261;28;19941;-41
2023/03/05 08:50:46;;;;;;;;;;;;;;;3.95;69.29;100104.19;4988402;28;21126;-41
2023/03/05 08:53:11;;;;;;;;;;;;;;;4.27;66.45;100126.66;4993067;28;19956;-41
2023/03/05 08:55:37;;;;;;;;;;;;;;;4.16;68.02;100121.41;4987932;28;19945;-40
2023/03/05 08:58:02;;;;;;;;;;;;;;;4.17;66.77;100130.78;4991194;28;20577;-40
2023/03/05 09:00:27;;;;;;;;;;;;;;;4.30;66.32;100151.31;4990659;28;20866;-40
2023/03/05 09:02:52;;;;;;;;;;;;;;;4.68;65.15;100173.88;4990344;28;20350;-41
2023/03/05 09:05:18;;;;;;;;;;;;;;;4.44;67.49;100157.44;4992188;28;21506;-41
2023/03/05 09:07:43;;;;;;;;;;;;;;;4.41;66.49;100157.41;4991868;28;20803;-41
2023/03/05 09:10:10;;;;;;;;;;;;;;;4.14;67.43;100146.03;4990260;28;20032;-41
2023/03/05 09:12:36;;;;;;;;;;;;;;;4.39;66.09;100171.84;4993444;28;19964;-41
2023/03/05 09:15:02;;;;;;;;;;;;;;;4.56;66.41;100172.91;4991354;28;20571;-40
2023/03/05 09:17:27;;;;;;;;;;;;;;;4.60;66.35;100177.16;4988640;28;19918;-40
2023/03/05 09:19:52;;;;;;;;;;;;;;;4.36;67.50;100161.59;4990586;28;19921;-41
2023/03/05 09:22:17;;;;;;;;;;;;;;;4.00;68.21;100142.47;4989773;28;19929;-41
2023/03/05 09:24:43;;;;;;;;;;;;;;;4.26;67.51;100149.56;4990502;28;19928;-40
2023/03/05 09:27:08;;;;;;;;;;;;;;;4.54;66.79;100172.03;4991493;28;19921;-41
2023/03/05 09:29:33;;;;;;;;;;;;;;;4.31;68.21;100145.38;4991668;28;19929;-41
2023/03/05 09:31:58;;;;;;;;;;;;;;;4.64;66.52;100169.56;4989735;28;19925;-41
2023/03/05 09:34:24;;;;;;;;;;;;;;;4.68;67.23;100163.66;4989470;28;20335;-41
2023/03/05 09:36:49;;;;;;;;;;;;;;;4.91;66.65;100172.41;4991274;28;19918;-41
2023/03/05 09:39:15;;;;;;;;;;;;;;;4.92;67.06;100158.78;4989734;28;20484;-41
2023/03/05 09:41:50;;;;;;;;;;;;;;;4.55;68.07;100140.56;4990175;28;20152;-41
2023/03/05 09:44:15;;;;;;;;;;;;;;;4.54;68.07;100135.47;4970767;28;20298;-41
2023/03/05 09:46:43;;;;;;;;;;;;;;;4.73;67.34;100132.25;4991887;28;19957;-41
2023/03/05 09:49:17;;;;;;;;;;;;;;;4.75;66.94;100134.81;4988277;28;19979;-41
2023/03/05 09:51:45;;;;;;;;;;;;;;;3.90;69.96;100089.66;4990037;28;19925;-40
2023/03/05 09:54:18;;;;;;;;;;;;;;;3.52;70.39;100078.13;4988033;28;20467;-40
2023/03/05 09:56:47;;;;;;;;;;;;;;;3.52;69.87;100092.56;4990707;28;21352;-40
2023/03/05 09:59:19;;;;;;;;;;;;;;;3.59;70.43;100091.81;4987378;28;19928;-40
2023/03/05 10:01:44;;;;;;;;;;;;;;;3.74;70.78;100107.31;4989311;28;20306;-41
2023/03/05 10:04:12;;;;;;;;;;;;;;;4.07;69.59;100121.31;4990431;28;20410;-41
2023/03/05 10:06:58;;;;;;;;;;;;;;;4.08;69.60;100115.38;5004154;28;20291;-41
2023/03/05 10:09:30;;;;;;;;;;;;;;;4.42;68.71;100125.94;4989620;28;19932;-40
2023/03/05 10:12:00;;;;;;;;;;;;;;;4.22;69.02;100112.13;4987730;28;20254;-40
2023/03/05 10:14:25;;;;;;;;;;;;;;;4.57;67.92;100126.13;4989224;28;20120;-42
2023/03/05 10:17:06;;;;;;;;;;;;;;;4.70;68.22;100122.00;4986952;28;19925;-40
2023/03/05 10:19:46;;;;;;;;;;;;;;;4.80;67.95;100117.84;4991149;28;19918;-40
2023/03/05 10:22:21;;;;;;;;;;;;;;;4.79;68.18;100103.38;4990299;28;19957;-40
2023/03/05 10:24:53;;;;;;;;;;;;;;;4.85;67.19;100105.97;5004823;28;19945;-40
2023/03/05 10:27:19;;;;;;;;;;;;;;;5.49;65.03;100130.31;4990263;28;19925;-40
2023/03/05 10:29:47;;;;;;;;;;;;;;;5.12;67.70;100090.03;4989278;28;19967;-40
2023/03/05 10:32:18;;;;;;;;;;;;;;;5.22;65.68;100086.72;4987966;28;20020;-40
2023/03/05 10:34:48;;;;;;;;;;;;;;;5.27;64.96;100099.53;4989118;28;19921;-40
2023/03/05 10:37:17;;;;;;;;;;;;;;;5.49;63.38;100107.31;4989246;28;19950;-41
2023/03/05 10:40:04;;;;;;;;;;;;;;;4.98;65.15;100083.97;4987825;28;20929;-41
2023/03/05 10:42:33;;;;;;;;;;;;;;;5.20;64.89;100105.41;4986425;28;20461;-41
2023/03/05 10:44:59;;;;;;;;;;;;;;;5.54;64.05;100126.06;4988063;28;19921;-40
2023/03/05 10:47:51;;;;;;;;;;;;;;;5.73;65.58;100120.25;4990928;28;19980;-40
2023/03/05 10:50:18;;;;;;;;;;;;;;;5.31;67.10;100080.78;4987752;28;19948;-41
2023/03/05 10:52:45;;;;;;;;;;;;;;;5.72;66.22;100077.63;4987586;28;19921;-40
2023/03/05 10:55:15;;;;;;;;;;;;;;;5.36;69.51;100043.38;4987036;28;20437;-40
2023/03/05 10:57:41;;;;;;;;;;;;;;;5.30;71.10;100014.41;4986598;28;19999;-40
2023/03/05 11:00:06;;;;;;;;;;;;;;;5.48;70.82;100000.88;4976571;28;20555;-40
2023/03/05 11:02:32;;;;;;;;;;;;;;;6.43;67.76;100037.84;4980768;28;19932;-40
2023/03/05 11:04:57;;;;;;;;;;;;;;;6.36;72.05;99999.44;4987602;28;19924;-41
2023/03/05 11:07:30;;;;;;;;;;;;;;;5.90;75.85;99945.63;4987993;28;20039;-41
2023/03/05 11:09:58;;;;;;;;;;;;;;;5.94;75.43;99924.34;4984524;28;19979;-41
2023/03/05 11:12:25;;;;;;;;;;;;;;;5.67;81.66;99882.53;4987995;28;19928;-41
2023/03/05 11:15:05;;;;;;;;;;;;;;;5.71;85.13;99851.03;4985507;28;19926;-41
2023/03/05 11:17:33;;;;;;;;;;;;;;;5.37;91.68;99802.44;4981568;28;19925;-41
2023/03/05 11:20:18;;;;;;;;;;;;;;;5.72;92.76;99785.44;4983656;28;20483;-40
2023/03/05 11:22:54;;;;;;;;;;;;;;;5.85;92.20;99767.53;4985065;28;19922;-41
2023/03/05 11:25:21;;;;;;;;;;;;;;;5.66;95.26;99745.41;4984895;28;19929;-40
2023/03/05 11:27:50;;;;;;;;;;;;;;;5.57;96.13;99735.19;4987400;28;21270;-40
2023/03/05 11:30:34;;;;;;;;;;;;;;;5.97;95.77;99732.63;4990323;28;20250;-40
2023/03/05 11:33:05;;;;;;;;;;;;;;;6.05;96.98;99723.25;4993141;28;19921;-40
2023/03/05 11:35:35;;;;;;;;;;;;;;;5.77;100.00;99697.69;4993884;28;20058;-40
2023/03/05 11:38:04;;;;;;;;;;;;;;;5.84;98.57;99701.94;4991788;28;19921;-40
2023/03/05 11:40:30;;;;;;;;;;;;;;;5.87;100.00;99684.03;4989025;28;19925;-40
2023/03/05 11:42:56;;;;;;;;;;;;;;;5.58;100.00;99663.63;4989199;28;19926;-40
2023/03/05 11:45:21;;;;;;;;;;;;;;;5.93;100.00;99677.19;4987760;28;20331;-40
2023/03/05 11:47:48;;;;;;;;;;;;;;;6.13;100.00;99678.03;4990450;28;19921;-40
2023/03/05 11:50:26;;;;;;;;;;;;;;;6.40;100.00;99668.56;4988329;28;19922;-40
2023/03/05 11:53:00;;;;;;;;;;;;;;;5.81;100.00;99629.53;4990099;28;20274;-40
2023/03/05 11:55:27;;;;;;;;;;;;;;;5.90;100.00;99631.22;4990244;28;19926;-40
2023/03/05 11:58:00;;;;;;;;;;;;;;;6.04;100.00;99637.16;4989401;28;19928;-40
2023/03/05 12:00:29;;;;;;;;;;;;;;;7.76;100.00;99694.97;4989613;28;19996;-40
2023/03/05 12:02:55;;;;;;;;;;;;;;;6.20;100.00;99580.00;4995012;28;19917;-40
2023/03/05 12:05:20;;;;;;;;;;;;;;;5.84;100.00;99561.38;4991182;28;20513;-40
2023/03/05 12:07:49;;;;;;;;;;;;;;;5.43;100.00;99552.13;4989532;28;21274;-41
2023/03/05 12:10:19;;;;;;;;;;;;;;;5.37;100.00;99559.78;4990278;28;20722;-41
2023/03/05 12:12:50;;;;;;;;;;;;;;;5.64;100.00;99568.25;4989942;28;20055;-40
2023/03/05 12:15:18;;;;;;;;;;;;;;;5.82;100.00;99573.28;4991595;28;20426;-40
2023/03/05 12:17:46;;;;;;;;;;;;;;;5.87;100.00;99581.78;4991283;28;20649;-41
2023/03/05 12:20:20;;;;;;;;;;;;;;;6.00;100.00;99576.69;4989313;28;20379;-40
2023/03/05 12:22:45;;;;;;;;;;;;;;;6.05;100.00;99585.19;4989932;28;20068;-40
2023/03/05 12:25:23;;;;;;;;;;;;;;;6.05;100.00;99572.38;4988976;28;19925;-40
2023/03/05 12:27:48;;;;;;;;;;;;;;;6.27;100.00;99561.19;4991393;28;20402;-40
2023/03/05 12:30:29;;;;;;;;;;;;;;;4.77;100.00;99520.72;4987592;28;19931;-40
2023/03/05 12:32:54;;;;;;;;;;;;;;;4.06;100.00;99523.19;4990372;28;19925;-40
2023/03/05 12:35:24;;;;;;;;;;;;;;;3.98;100.00;99547.78;4990209;28;19967;-39
2023/03/05 12:37:49;;;;;;;;;;;;;;;5.13;99.26;99610.88;4991055;28;19927;-39
2023/03/05 12:40:31;;;;;;;;;;;;;;;5.25;100.00;99603.22;4987885;28;19943;-39
2023/03/05 12:43:03;;;;;;;;;;;;;;;5.49;100.00;99601.50;4987149;28;19931;-40
2023/03/05 12:45:33;;;;;;;;;;;;;;;5.59;100.00;99575.09;4989756;28;20578;-40